sensor_id;sensor_type;location;lat;lon;timestamp;pressure;altitude;pressure_sealevel;temperature;humidity
16978;BME280;8605;52.548;4.918;2023-12-22T00:00:00;100242.72;;;6.14;82.35
16978;BME280;8605;52.548;4.918;2023-12-22T00:02:28;100243.13;;;6.19;82.72
16978;BME280;8605;52.548;4.918;2023-12-22T00:04:56;100255.34;;;6.22;83.42
16978;BME280;8605;52.548;4.918;2023-12-22T00:07:24;100262.34;;;6.23;83.62
16978;BME280;8605;52.548;4.918;2023-12-22T00:09:51;100289.78;;;6.25;84.97
16978;BME280;8605;52.548;4.918;2023-12-22T00:12:19;100286.84;;;6.28;85.51
16978;BME280;8605;52.548;4.918;2023-12-22T00:14:47;100266.31;;;6.28;86.44
16978;BME280;8605;52.548;4.918;2023-12-22T00:17:16;100258.44;;;6.27;86.88
16978;BME280;8605;52.548;4.918;2023-12-22T00:19:44;100272.06;;;6.24;86.63
16978;BME280;8605;52.548;4.918;2023-12-22T00:22:12;100261.81;;;6.19;86.28
16978;BME280;8605;52.548;4.918;2023-12-22T00:24:40;100256.59;;;6.18;86.20
16978;BME280;8605;52.548;4.918;2023-12-22T00:27:07;100269.56;;;6.13;86.40
16978;BME280;8605;52.548;4.918;2023-12-22T00:29:36;100238.78;;;6.09;85.99
16978;BME280;8605;52.548;4.918;2023-12-22T00:32:04;100234.97;;;6.11;85.73
16978;BME280;8605;52.548;4.918;2023-12-22T00:34:34;100224.00;;;6.14;85.19
16978;BME280;8605;52.548;4.918;2023-12-22T00:37:02;100257.44;;;6.18;84.77
16978;BME280;8605;52.548;4.918;2023-12-22T00:39:31;100245.34;;;6.24;85.62
16978;BME280;8605;52.548;4.918;2023-12-22T00:41:58;100250.28;;;6.28;84.88
16978;BME280;8605;52.548;4.918;2023-12-22T00:44:27;100259.81;;;6.31;84.00
16978;BME280;8605;52.548;4.918;2023-12-22T00:46:56;100276.28;;;6.26;83.28
16978;BME280;8605;52.548;4.918;2023-12-22T00:49:24;100287.28;;;6.14;84.21
16978;BME280;8605;52.548;4.918;2023-12-22T00:51:53;100250.47;;;6.08;85.01
16978;BME280;8605;52.548;4.918;2023-12-22T00:54:21;100261.00;;;5.99;85.87
16978;BME280;8605;52.548;4.918;2023-12-22T00:56:48;100254.28;;;5.95;86.22
16978;BME280;8605;52.548;4.918;2023-12-22T00:59:16;100259.88;;;5.92;86.43
16978;BME280;8605;52.548;4.918;2023-12-22T01:01:44;100255.25;;;5.94;85.91
16978;BME280;8605;52.548;4.918;2023-12-22T01:04:12;100262.97;;;5.97;86.74
16978;BME280;8605;52.548;4.918;2023-12-22T01:06:40;100250.06;;;5.93;86.68
16978;BME280;8605;52.548;4.918;2023-12-22T01:09:09;100252.31;;;5.88;87.37
16978;BME280;8605;52.548;4.918;2023-12-22T01:11:37;100263.41;;;5.93;87.35
16978;BME280;8605;52.548;4.918;2023-12-22T01:14:05;100268.19;;;5.99;87.63
16978;BME280;8605;52.548;4.918;2023-12-22T01:16:33;100267.31;;;5.98;87.56
16978;BME280;8605;52.548;4.918;2023-12-22T01:19:01;100265.06;;;6.03;87.52
16978;BME280;8605;52.548;4.918;2023-12-22T01:21:29;100253.00;;;5.99;87.71
16978;BME280;8605;52.548;4.918;2023-12-22T01:23:57;100245.97;;;5.98;87.94
16978;BME280;8605;52.548;4.918;2023-12-22T01:26:26;100258.19;;;6.01;87.74
16978;BME280;8605;52.548;4.918;2023-12-22T01:28:54;100260.56;;;6.14;86.77
16978;BME280;8605;52.548;4.918;2023-12-22T01:31:22;100258.59;;;6.16;86.70
16978;BME280;8605;52.548;4.918;2023-12-22T01:33:50;100265.91;;;6.14;86.71
16978;BME280;8605;52.548;4.918;2023-12-22T01:36:17;100247.22;;;6.14;86.43
16978;BME280;8605;52.548;4.918;2023-12-22T01:38:45;100260.53;;;6.23;86.59
16978;BME280;8605;52.548;4.918;2023-12-22T01:41:13;100263.63;;;6.19;87.00
16978;BME280;8605;52.548;4.918;2023-12-22T01:43:42;100271.06;;;6.25;86.53
16978;BME280;8605;52.548;4.918;2023-12-22T01:46:11;100273.31;;;6.29;86.63
16978;BME280;8605;52.548;4.918;2023-12-22T01:48:40;100277.94;;;6.37;86.78
16978;BME280;8605;52.548;4.918;2023-12-22T01:51:09;100273.84;;;6.42;86.85
16978;BME280;8605;52.548;4.918;2023-12-22T01:53:37;100273.84;;;6.42;87.02
16978;BME280;8605;52.548;4.918;2023-12-22T01:56:06;100259.59;;;6.52;86.60
16978;BME280;8605;52.548;4.918;2023-12-22T01:58:34;100256.50;;;6.56;86.71
16978;BME280;8605;52.548;4.918;2023-12-22T02:01:05;100272.50;;;6.66;86.25
16978;BME280;8605;52.548;4.918;2023-12-22T02:03:34;100269.94;;;6.74;85.25
16978;BME280;8605;52.548;4.918;2023-12-22T02:06:04;100293.25;;;6.81;84.75
16978;BME280;8605;52.548;4.918;2023-12-22T02:08:32;100320.56;;;6.75;85.10
16978;BME280;8605;52.548;4.918;2023-12-22T02:11:01;100317.78;;;6.21;86.44
16978;BME280;8605;52.548;4.918;2023-12-22T02:13:29;100317.66;;;5.93;87.83
16978;BME280;8605;52.548;4.918;2023-12-22T02:16:01;100327.72;;;5.80;88.10
16978;BME280;8605;52.548;4.918;2023-12-22T02:18:35;100300.75;;;5.74;88.44
16978;BME280;8605;52.548;4.918;2023-12-22T02:21:06;100309.03;;;5.71;88.37
16978;BME280;8605;52.548;4.918;2023-12-22T02:23:35;100311.56;;;5.72;88.98
16978;BME280;8605;52.548;4.918;2023-12-22T02:26:06;100332.25;;;5.70;88.80
16978;BME280;8605;52.548;4.918;2023-12-22T02:28:39;100331.22;;;5.61;90.08
16978;BME280;8605;52.548;4.918;2023-12-22T02:31:12;100310.88;;;5.60;90.31
16978;BME280;8605;52.548;4.918;2023-12-22T02:33:44;100311.41;;;5.54;91.48
16978;BME280;8605;52.548;4.918;2023-12-22T02:36:13;100315.91;;;5.54;91.33
16978;BME280;8605;52.548;4.918;2023-12-22T02:38:45;100300.88;;;5.53;91.09
16978;BME280;8605;52.548;4.918;2023-12-22T02:41:13;100308.63;;;5.56;90.97
16978;BME280;8605;52.548;4.918;2023-12-22T02:43:42;100295.81;;;5.59;90.64
16978;BME280;8605;52.548;4.918;2023-12-22T02:46:13;100346.81;;;5.66;90.91
16978;BME280;8605;52.548;4.918;2023-12-22T02:48:41;100342.00;;;5.41;90.77
16978;BME280;8605;52.548;4.918;2023-12-22T02:51:09;100353.34;;;5.23;92.28
16978;BME280;8605;52.548;4.918;2023-12-22T02:53:37;100338.88;;;5.26;91.99
16978;BME280;8605;52.548;4.918;2023-12-22T02:56:06;100342.56;;;5.35;92.93
16978;BME280;8605;52.548;4.918;2023-12-22T02:58:34;100355.59;;;5.28;93.86
16978;BME280;8605;52.548;4.918;2023-12-22T03:01:02;100363.19;;;5.33;94.01
16978;BME280;8605;52.548;4.918;2023-12-22T03:03:30;100343.53;;;5.34;93.78
16978;BME280;8605;52.548;4.918;2023-12-22T03:05:58;100337.47;;;5.32;94.24
16978;BME280;8605;52.548;4.918;2023-12-22T03:08:26;100317.84;;;5.33;93.25
16978;BME280;8605;52.548;4.918;2023-12-22T03:10:53;100319.53;;;5.34;93.25
16978;BME280;8605;52.548;4.918;2023-12-22T03:13:23;100316.97;;;5.32;94.20
16978;BME280;8605;52.548;4.918;2023-12-22T03:15:50;100310.13;;;5.30;92.88
16978;BME280;8605;52.548;4.918;2023-12-22T03:18:18;100331.88;;;5.35;93.31
16978;BME280;8605;52.548;4.918;2023-12-22T03:20:46;100326.72;;;5.43;93.38
16978;BME280;8605;52.548;4.918;2023-12-22T03:23:14;100332.72;;;5.45;93.31
16978;BME280;8605;52.548;4.918;2023-12-22T03:25:42;100331.22;;;5.52;93.73
16978;BME280;8605;52.548;4.918;2023-12-22T03:28:10;100326.31;;;5.57;92.60
16978;BME280;8605;52.548;4.918;2023-12-22T03:30:39;100325.19;;;5.59;93.69
16978;BME280;8605;52.548;4.918;2023-12-22T03:33:07;100316.91;;;5.62;93.20
16978;BME280;8605;52.548;4.918;2023-12-22T03:35:35;100333.59;;;5.64;93.50
16978;BME280;8605;52.548;4.918;2023-12-22T03:38:03;100319.16;;;5.67;93.48
16978;BME280;8605;52.548;4.918;2023-12-22T03:40:31;100313.81;;;5.67;93.05
16978;BME280;8605;52.548;4.918;2023-12-22T03:42:59;100313.38;;;5.72;92.47
16978;BME280;8605;52.548;4.918;2023-12-22T03:45:27;100313.00;;;5.76;91.59
16978;BME280;8605;52.548;4.918;2023-12-22T03:47:56;100322.41;;;5.80;92.24
16978;BME280;8605;52.548;4.918;2023-12-22T03:50:24;100328.16;;;5.85;92.28
16978;BME280;8605;52.548;4.918;2023-12-22T03:52:51;100348.84;;;5.93;92.68
16978;BME280;8605;52.548;4.918;2023-12-22T03:55:19;100362.34;;;5.91;92.55
16978;BME280;8605;52.548;4.918;2023-12-22T03:57:47;100350.63;;;5.73;93.19
16978;BME280;8605;52.548;4.918;2023-12-22T04:00:17;100351.06;;;5.69;93.82
16978;BME280;8605;52.548;4.918;2023-12-22T04:02:45;100325.75;;;5.63;93.08
16978;BME280;8605;52.548;4.918;2023-12-22T04:05:16;100327.00;;;5.59;93.17
16978;BME280;8605;52.548;4.918;2023-12-22T04:07:44;100343.31;;;5.56;92.77
16978;BME280;8605;52.548;4.918;2023-12-22T04:10:12;100333.63;;;5.55;93.03
16978;BME280;8605;52.548;4.918;2023-12-22T04:12:40;100325.31;;;5.48;93.28
16978;BME280;8605;52.548;4.918;2023-12-22T04:15:08;100324.91;;;5.53;92.86
16978;BME280;8605;52.548;4.918;2023-12-22T04:17:36;100315.34;;;5.50;92.37
16978;BME280;8605;52.548;4.918;2023-12-22T04:20:05;100324.91;;;5.53;91.81
16978;BME280;8605;52.548;4.918;2023-12-22T04:22:35;100323.06;;;5.53;92.48
16978;BME280;8605;52.548;4.918;2023-12-22T04:25:03;100324.75;;;5.54;92.49
16978;BME280;8605;52.548;4.918;2023-12-22T04:27:32;100315.78;;;5.55;92.66
16978;BME280;8605;52.548;4.918;2023-12-22T04:30:00;100316.47;;;5.57;91.99
16978;BME280;8605;52.548;4.918;2023-12-22T04:32:28;100312.69;;;5.60;92.42
16978;BME280;8605;52.548;4.918;2023-12-22T04:34:56;100311.28;;;5.66;92.64
16978;BME280;8605;52.548;4.918;2023-12-22T04:37:23;100309.59;;;5.64;92.47
16978;BME280;8605;52.548;4.918;2023-12-22T04:39:53;100316.50;;;5.67;93.07
16978;BME280;8605;52.548;4.918;2023-12-22T04:42:20;100318.72;;;5.72;92.42
16978;BME280;8605;52.548;4.918;2023-12-22T04:44:48;100310.47;;;5.75;92.21
16978;BME280;8605;52.548;4.918;2023-12-22T04:47:16;100315.09;;;5.82;92.62
16978;BME280;8605;52.548;4.918;2023-12-22T04:49:44;100314.28;;;5.91;91.86
16978;BME280;8605;52.548;4.918;2023-12-22T04:52:12;100310.06;;;5.98;92.56
16978;BME280;8605;52.548;4.918;2023-12-22T04:54:40;100304.41;;;6.11;91.90
16978;BME280;8605;52.548;4.918;2023-12-22T04:57:09;100305.25;;;6.12;91.87
16978;BME280;8605;52.548;4.918;2023-12-22T04:59:42;100298.50;;;6.27;91.31
16978;BME280;8605;52.548;4.918;2023-12-22T05:02:10;100282.34;;;6.28;91.09
16978;BME280;8605;52.548;4.918;2023-12-22T05:04:38;100292.25;;;6.46;90.40
16978;BME280;8605;52.548;4.918;2023-12-22T05:07:06;100296.19;;;6.51;90.14
16978;BME280;8605;52.548;4.918;2023-12-22T05:09:34;100297.69;;;6.63;90.26
16978;BME280;8605;52.548;4.918;2023-12-22T05:12:02;100278.69;;;6.66;90.20
16978;BME280;8605;52.548;4.918;2023-12-22T05:14:31;100286.53;;;6.68;90.09
16978;BME280;8605;52.548;4.918;2023-12-22T05:16:59;100300.75;;;6.78;90.64
16978;BME280;8605;52.548;4.918;2023-12-22T05:19:27;100287.06;;;6.81;90.80
16978;BME280;8605;52.548;4.918;2023-12-22T05:21:55;100285.22;;;6.81;89.75
16978;BME280;8605;52.548;4.918;2023-12-22T05:24:23;100279.88;;;6.81;90.21
16978;BME280;8605;52.548;4.918;2023-12-22T05:26:52;100278.63;;;6.86;89.95
16978;BME280;8605;52.548;4.918;2023-12-22T05:29:19;100287.31;;;6.88;89.65
16978;BME280;8605;52.548;4.918;2023-12-22T05:31:49;100285.47;;;6.88;90.01
16978;BME280;8605;52.548;4.918;2023-12-22T05:34:17;100291.63;;;6.98;88.95
16978;BME280;8605;52.548;4.918;2023-12-22T05:36:44;100293.16;;;7.01;89.33
16978;BME280;8605;52.548;4.918;2023-12-22T05:39:12;100282.88;;;7.06;88.70
16978;BME280;8605;52.548;4.918;2023-12-22T05:41:40;100300.75;;;7.05;89.22
16978;BME280;8605;52.548;4.918;2023-12-22T05:44:08;100302.28;;;7.08;89.03
16978;BME280;8605;52.548;4.918;2023-12-22T05:46:39;100300.16;;;7.11;89.31
16978;BME280;8605;52.548;4.918;2023-12-22T05:49:09;100301.16;;;7.10;88.98
16978;BME280;8605;52.548;4.918;2023-12-22T05:51:38;100292.66;;;7.15;88.78
16978;BME280;8605;52.548;4.918;2023-12-22T05:54:06;100288.31;;;7.14;87.71
16978;BME280;8605;52.548;4.918;2023-12-22T05:56:34;100305.59;;;7.19;88.21
16978;BME280;8605;52.548;4.918;2023-12-22T05:59:02;100291.06;;;7.22;87.29
16978;BME280;8605;52.548;4.918;2023-12-22T06:01:30;100276.72;;;7.23;87.11
16978;BME280;8605;52.548;4.918;2023-12-22T06:03:58;100285.34;;;7.17;87.88
16978;BME280;8605;52.548;4.918;2023-12-22T06:06:27;100293.38;;;7.17;87.41
16978;BME280;8605;52.548;4.918;2023-12-22T06:08:56;100287.56;;;7.21;86.68
16978;BME280;8605;52.548;4.918;2023-12-22T06:11:24;100284.97;;;7.12;86.98
16978;BME280;8605;52.548;4.918;2023-12-22T06:13:51;100305.75;;;7.18;87.08
16978;BME280;8605;52.548;4.918;2023-12-22T06:16:19;100301.53;;;7.15;87.59
16978;BME280;8605;52.548;4.918;2023-12-22T06:18:47;100289.38;;;7.21;87.29
16978;BME280;8605;52.548;4.918;2023-12-22T06:21:15;100289.38;;;7.21;87.07
16978;BME280;8605;52.548;4.918;2023-12-22T06:23:44;100299.50;;;7.27;86.87
16978;BME280;8605;52.548;4.918;2023-12-22T06:26:12;100293.94;;;7.38;86.71
16978;BME280;8605;52.548;4.918;2023-12-22T06:28:40;100288.88;;;7.35;86.92
16978;BME280;8605;52.548;4.918;2023-12-22T06:31:17;100289.03;;;7.34;87.35
16978;BME280;8605;52.548;4.918;2023-12-22T06:33:47;100289.03;;;7.34;86.92
16978;BME280;8605;52.548;4.918;2023-12-22T06:36:19;100291.09;;;7.40;87.32
16978;BME280;8605;52.548;4.918;2023-12-22T06:38:48;100291.94;;;7.40;88.21
16978;BME280;8605;52.548;4.918;2023-12-22T06:41:20;100280.09;;;7.43;87.89
16978;BME280;8605;52.548;4.918;2023-12-22T06:43:54;100281.94;;;7.42;87.61
16978;BME280;8605;52.548;4.918;2023-12-22T06:46:23;100285.00;;;7.47;87.19
16978;BME280;8605;52.548;4.918;2023-12-22T06:48:53;100290.66;;;7.44;88.11
16978;BME280;8605;52.548;4.918;2023-12-22T06:51:22;100285.13;;;7.46;88.02
16978;BME280;8605;52.548;4.918;2023-12-22T06:53:53;100305.66;;;7.55;87.30
16978;BME280;8605;52.548;4.918;2023-12-22T06:56:21;100297.09;;;7.51;87.32
16978;BME280;8605;52.548;4.918;2023-12-22T06:58:51;100295.09;;;7.53;87.62
16978;BME280;8605;52.548;4.918;2023-12-22T07:01:20;100286.22;;;7.53;87.38
16978;BME280;8605;52.548;4.918;2023-12-22T07:03:48;100295.94;;;7.54;87.43
16978;BME280;8605;52.548;4.918;2023-12-22T07:06:17;100301.84;;;7.57;87.28
16978;BME280;8605;52.548;4.918;2023-12-22T07:11:51;100312.25;;;7.60;86.96
16978;BME280;8605;52.548;4.918;2023-12-22T07:14:22;100308.84;;;7.58;86.88
16978;BME280;8605;52.548;4.918;2023-12-22T07:16:50;100303.75;;;7.65;86.51
16978;BME280;8605;52.548;4.918;2023-12-22T07:19:18;100311.63;;;7.67;86.89
16978;BME280;8605;52.548;4.918;2023-12-22T07:21:47;100316.69;;;7.70;87.94
16978;BME280;8605;52.548;4.918;2023-12-22T07:24:37;100294.25;;;7.53;90.65
16978;BME280;8605;52.548;4.918;2023-12-22T07:27:06;100293.16;;;7.46;91.49
16978;BME280;8605;52.548;4.918;2023-12-22T07:29:34;100302.75;;;7.48;92.06
16978;BME280;8605;52.548;4.918;2023-12-22T07:32:04;100292.56;;;7.52;92.59
16978;BME280;8605;52.548;4.918;2023-12-22T07:34:32;100297.03;;;7.61;92.78
16978;BME280;8605;52.548;4.918;2023-12-22T07:37:04;100291.38;;;7.64;92.67
16978;BME280;8605;52.548;4.918;2023-12-22T07:39:35;100297.25;;;7.68;93.37
16978;BME280;8605;52.548;4.918;2023-12-22T07:42:04;100289.59;;;7.73;92.63
16978;BME280;8605;52.548;4.918;2023-12-22T07:44:34;100299.03;;;7.77;93.39
16978;BME280;8605;52.548;4.918;2023-12-22T07:47:02;100291.22;;;7.83;92.00
16978;BME280;8605;52.548;4.918;2023-12-22T07:49:31;100293.34;;;7.80;92.89
16978;BME280;8605;52.548;4.918;2023-12-22T07:51:59;100296.41;;;7.67;93.15
16978;BME280;8605;52.548;4.918;2023-12-22T07:54:29;100291.97;;;7.58;91.57
16978;BME280;8605;52.548;4.918;2023-12-22T07:56:57;100293.63;;;7.59;92.92
16978;BME280;8605;52.548;4.918;2023-12-22T07:59:25;100318.44;;;7.61;92.83
16978;BME280;8605;52.548;4.918;2023-12-22T08:01:59;100289.59;;;7.55;94.76
16978;BME280;8605;52.548;4.918;2023-12-22T08:04:27;100298.09;;;7.50;94.85
16978;BME280;8605;52.548;4.918;2023-12-22T08:06:55;100297.38;;;7.48;95.39
16978;BME280;8605;52.548;4.918;2023-12-22T08:09:23;100286.69;;;7.48;95.50
16978;BME280;8605;52.548;4.918;2023-12-22T08:11:50;100292.41;;;7.53;96.31
16978;BME280;8605;52.548;4.918;2023-12-22T08:14:20;100274.75;;;7.60;95.91
16978;BME280;8605;52.548;4.918;2023-12-22T08:16:48;100273.84;;;7.70;96.26
16978;BME280;8605;52.548;4.918;2023-12-22T08:19:17;100268.50;;;7.70;96.85
16978;BME280;8605;52.548;4.918;2023-12-22T08:21:45;100268.16;;;7.73;96.45
16978;BME280;8605;52.548;4.918;2023-12-22T08:24:16;100260.69;;;7.76;96.97
16978;BME280;8605;52.548;4.918;2023-12-22T08:26:49;100255.84;;;7.80;96.63
16978;BME280;8605;52.548;4.918;2023-12-22T08:29:17;100266.94;;;7.85;96.94
16978;BME280;8605;52.548;4.918;2023-12-22T08:31:46;100249.03;;;7.85;96.13
16978;BME280;8605;52.548;4.918;2023-12-22T08:34:14;100243.53;;;7.87;97.07
16978;BME280;8605;52.548;4.918;2023-12-22T08:36:43;100240.06;;;7.94;95.89
16978;BME280;8605;52.548;4.918;2023-12-22T08:39:12;100241.91;;;7.94;95.36
16978;BME280;8605;52.548;4.918;2023-12-22T08:41:40;100254.53;;;8.01;95.25
16978;BME280;8605;52.548;4.918;2023-12-22T08:44:08;100251.00;;;8.01;94.70
16978;BME280;8605;52.548;4.918;2023-12-22T08:46:36;100268.63;;;8.03;95.10
16978;BME280;8605;52.548;4.918;2023-12-22T08:49:04;100249.25;;;8.10;93.95
16978;BME280;8605;52.548;4.918;2023-12-22T08:51:32;100246.72;;;8.08;94.25
16978;BME280;8605;52.548;4.918;2023-12-22T08:54:02;100255.25;;;8.12;94.19
16978;BME280;8605;52.548;4.918;2023-12-22T08:56:30;100265.13;;;8.11;94.78
16978;BME280;8605;52.548;4.918;2023-12-22T08:58:58;100264.16;;;8.12;94.30
16978;BME280;8605;52.548;4.918;2023-12-22T09:01:26;100266.53;;;8.15;94.52
16978;BME280;8605;52.548;4.918;2023-12-22T09:03:54;100265.00;;;8.13;94.88
16978;BME280;8605;52.548;4.918;2023-12-22T09:06:23;100261.16;;;8.15;94.69
16978;BME280;8605;52.548;4.918;2023-12-22T09:08:51;100254.28;;;8.13;94.49
16978;BME280;8605;52.548;4.918;2023-12-22T09:11:21;100251.53;;;8.04;94.74
16978;BME280;8605;52.548;4.918;2023-12-22T09:13:49;100248.19;;;8.02;94.41
16978;BME280;8605;52.548;4.918;2023-12-22T09:16:20;100264.88;;;7.96;94.69
16978;BME280;8605;52.548;4.918;2023-12-22T09:18:49;100267.34;;;7.90;95.09
16978;BME280;8605;52.548;4.918;2023-12-22T09:21:18;100268.94;;;7.83;95.94
16978;BME280;8605;52.548;4.918;2023-12-22T09:23:46;100274.31;;;7.83;95.44
16978;BME280;8605;52.548;4.918;2023-12-22T09:26:16;100248.81;;;7.79;96.98
16978;BME280;8605;52.548;4.918;2023-12-22T09:28:46;100249.41;;;7.73;96.26
16978;BME280;8605;52.548;4.918;2023-12-22T09:31:14;100249.84;;;7.78;97.07
16978;BME280;8605;52.548;4.918;2023-12-22T09:33:42;100265.50;;;7.73;96.31
16978;BME280;8605;52.548;4.918;2023-12-22T09:36:10;100268.41;;;7.97;96.77
16978;BME280;8605;52.548;4.918;2023-12-22T09:38:38;100264.63;;;8.08;96.34
16978;BME280;8605;52.548;4.918;2023-12-22T09:41:06;100263.06;;;8.23;94.75
16978;BME280;8605;52.548;4.918;2023-12-22T09:43:35;100280.66;;;8.25;95.33
16978;BME280;8605;52.548;4.918;2023-12-22T09:46:06;100273.16;;;8.29;94.41
16978;BME280;8605;52.548;4.918;2023-12-22T09:48:36;100274.53;;;8.33;94.84
16978;BME280;8605;52.548;4.918;2023-12-22T09:51:07;100284.50;;;8.40;93.97
16978;BME280;8605;52.548;4.918;2023-12-22T09:53:35;100282.66;;;8.41;94.09
16978;BME280;8605;52.548;4.918;2023-12-22T09:56:04;100288.84;;;8.41;94.54
16978;BME280;8605;52.548;4.918;2023-12-22T09:58:33;100301.41;;;8.41;93.27
16978;BME280;8605;52.548;4.918;2023-12-22T10:01:02;100293.88;;;8.45;94.01
16978;BME280;8605;52.548;4.918;2023-12-22T10:03:34;100306.81;;;8.49;93.50
16978;BME280;8605;52.548;4.918;2023-12-22T10:06:04;100293.94;;;8.53;93.13
16978;BME280;8605;52.548;4.918;2023-12-22T10:08:32;100281.03;;;8.48;93.67
16978;BME280;8605;52.548;4.918;2023-12-22T10:11:01;100292.63;;;8.57;93.12
16978;BME280;8605;52.548;4.918;2023-12-22T10:13:33;100293.63;;;8.56;93.37
16978;BME280;8605;52.548;4.918;2023-12-22T10:16:04;100289.56;;;8.52;93.71
16978;BME280;8605;52.548;4.918;2023-12-22T10:18:34;100291.91;;;8.47;94.69
16978;BME280;8605;52.548;4.918;2023-12-22T10:21:02;100294.59;;;8.47;94.42
16978;BME280;8605;52.548;4.918;2023-12-22T10:23:30;100295.63;;;8.54;94.08
16978;BME280;8605;52.548;4.918;2023-12-22T10:25:58;100297.84;;;8.58;93.31
16978;BME280;8605;52.548;4.918;2023-12-22T10:28:27;100308.91;;;8.63;92.12
16978;BME280;8605;52.548;4.918;2023-12-22T10:30:56;100295.50;;;8.63;92.81
16978;BME280;8605;52.548;4.918;2023-12-22T10:33:30;100291.69;;;8.66;91.84
16978;BME280;8605;52.548;4.918;2023-12-22T10:36:00;100292.38;;;8.68;92.20
16978;BME280;8605;52.548;4.918;2023-12-22T10:38:32;100285.78;;;8.62;92.99
16978;BME280;8605;52.548;4.918;2023-12-22T10:41:01;100287.00;;;8.68;92.63
16978;BME280;8605;52.548;4.918;2023-12-22T10:43:29;100318.56;;;8.74;92.05
16978;BME280;8605;52.548;4.918;2023-12-22T10:45:57;100305.28;;;8.72;92.46
16978;BME280;8605;52.548;4.918;2023-12-22T10:48:25;100293.09;;;8.78;92.14
16978;BME280;8605;52.548;4.918;2023-12-22T10:50:53;100286.38;;;8.82;91.36
16978;BME280;8605;52.548;4.918;2023-12-22T10:53:22;100282.84;;;8.81;91.91
16978;BME280;8605;52.548;4.918;2023-12-22T10:55:51;100268.78;;;8.79;91.43
16978;BME280;8605;52.548;4.918;2023-12-22T10:58:19;100273.34;;;8.87;91.64
16978;BME280;8605;52.548;4.918;2023-12-22T11:00:47;100282.25;;;8.88;91.47
16978;BME280;8605;52.548;4.918;2023-12-22T11:03:21;100287.44;;;8.89;91.82
16978;BME280;8605;52.548;4.918;2023-12-22T11:05:54;100295.69;;;8.96;91.50
16978;BME280;8605;52.548;4.918;2023-12-22T11:08:24;100280.13;;;8.99;90.82
16978;BME280;8605;52.548;4.918;2023-12-22T11:10:57;100292.00;;;8.97;91.57
16978;BME280;8605;52.548;4.918;2023-12-22T11:13:26;100300.38;;;8.94;91.70
16978;BME280;8605;52.548;4.918;2023-12-22T11:15:57;100289.16;;;8.98;90.94
16978;BME280;8605;52.548;4.918;2023-12-22T11:18:25;100276.44;;;9.00;90.99
16978;BME280;8605;52.548;4.918;2023-12-22T11:20:54;100264.31;;;8.96;90.78
16978;BME280;8605;52.548;4.918;2023-12-22T11:23:23;100270.88;;;9.02;90.75
16978;BME280;8605;52.548;4.918;2023-12-22T11:25:53;100270.41;;;9.06;90.18
16978;BME280;8605;52.548;4.918;2023-12-22T11:28:22;100254.97;;;9.00;90.49
16978;BME280;8605;52.548;4.918;2023-12-22T11:30:51;100273.09;;;9.06;91.34
16978;BME280;8605;52.548;4.918;2023-12-22T11:33:25;100258.69;;;9.07;91.33
16978;BME280;8605;52.548;4.918;2023-12-22T11:35:55;100250.44;;;9.09;91.27
16978;BME280;8605;52.548;4.918;2023-12-22T11:38:25;100252.81;;;9.12;90.88
16978;BME280;8605;52.548;4.918;2023-12-22T11:40:53;100243.75;;;9.13;90.96
16978;BME280;8605;52.548;4.918;2023-12-22T11:43:21;100246.44;;;9.21;90.52
16978;BME280;8605;52.548;4.918;2023-12-22T11:45:49;100234.22;;;9.18;90.40
16978;BME280;8605;52.548;4.918;2023-12-22T11:48:17;100225.81;;;9.21;90.58
16978;BME280;8605;52.548;4.918;2023-12-22T11:50:45;100231.53;;;9.18;90.47
16978;BME280;8605;52.548;4.918;2023-12-22T11:53:22;100239.59;;;9.18;90.84
16978;BME280;8605;52.548;4.918;2023-12-22T11:56:02;100226.16;;;9.18;91.22
16978;BME280;8605;52.548;4.918;2023-12-22T11:58:39;100225.47;;;9.16;90.72
16978;BME280;8605;52.548;4.918;2023-12-22T12:01:08;100222.09;;;9.06;91.73
16978;BME280;8605;52.548;4.918;2023-12-22T12:03:38;100218.09;;;9.10;91.46
16978;BME280;8605;52.548;4.918;2023-12-22T12:06:14;100212.22;;;9.15;91.34
16978;BME280;8605;52.548;4.918;2023-12-22T12:08:43;100223.13;;;9.21;92.02
16978;BME280;8605;52.548;4.918;2023-12-22T12:11:12;100204.34;;;9.21;91.38
16978;BME280;8605;52.548;4.918;2023-12-22T12:13:42;100189.41;;;9.11;91.27
16978;BME280;8605;52.548;4.918;2023-12-22T12:16:12;100200.66;;;9.22;91.69
16978;BME280;8605;52.548;4.918;2023-12-22T12:18:41;100195.78;;;9.18;91.95
16978;BME280;8605;52.548;4.918;2023-12-22T12:21:10;100194.09;;;9.17;92.61
16978;BME280;8605;52.548;4.918;2023-12-22T12:23:40;100182.72;;;9.23;92.45
16978;BME280;8605;52.548;4.918;2023-12-22T12:26:08;100208.91;;;9.37;90.36
16978;BME280;8605;52.548;4.918;2023-12-22T12:28:38;100212.09;;;9.33;91.82
16978;BME280;8605;52.548;4.918;2023-12-22T12:31:08;100212.09;;;9.33;90.37
16978;BME280;8605;52.548;4.918;2023-12-22T12:33:36;100201.38;;;9.33;90.88
16978;BME280;8605;52.548;4.918;2023-12-22T12:36:04;100197.66;;;9.34;90.41
16978;BME280;8605;52.548;4.918;2023-12-22T12:38:40;100198.50;;;9.34;89.86
16978;BME280;8605;52.548;4.918;2023-12-22T12:41:10;100212.75;;;9.35;90.10
16978;BME280;8605;52.548;4.918;2023-12-22T12:43:42;100201.03;;;9.36;89.80
16978;BME280;8605;52.548;4.918;2023-12-22T12:46:11;100203.38;;;9.39;90.64
16978;BME280;8605;52.548;4.918;2023-12-22T12:48:39;100198.50;;;9.42;89.82
16978;BME280;8605;52.548;4.918;2023-12-22T12:51:08;100197.50;;;9.43;88.97
16978;BME280;8605;52.548;4.918;2023-12-22T12:53:36;100214.78;;;9.41;89.93
16978;BME280;8605;52.548;4.918;2023-12-22T12:56:05;100181.72;;;9.40;89.50
16978;BME280;8605;52.548;4.918;2023-12-22T12:58:33;100193.66;;;9.46;89.50
16978;BME280;8605;52.548;4.918;2023-12-22T13:01:07;100194.66;;;9.45;89.44
16978;BME280;8605;52.548;4.918;2023-12-22T13:03:53;100207.09;;;9.46;89.28
16978;BME280;8605;52.548;4.918;2023-12-22T13:06:22;100194.97;;;9.42;89.55
16978;BME280;8605;52.548;4.918;2023-12-22T13:08:50;100209.78;;;9.46;88.96
16978;BME280;8605;52.548;4.918;2023-12-22T13:11:20;100205.56;;;9.43;89.10
16978;BME280;8605;52.548;4.918;2023-12-22T13:13:49;100201.03;;;9.44;89.10
16978;BME280;8605;52.548;4.918;2023-12-22T13:16:20;100207.75;;;9.48;89.43
16978;BME280;8605;52.548;4.918;2023-12-22T13:18:48;100213.13;;;9.48;88.82
16978;BME280;8605;52.548;4.918;2023-12-22T13:21:16;100208.44;;;9.50;89.44